Time;durP1;ratioP1;P1;durP2;ratioP2;P2;SDS_P1;SDS_P2;PMS_P1;PMS_P2;Temp;Humidity;BMP_temperature;BMP_pressure;BME280_temperature;BME280_humidity;BME280_pressure;Samples;Min_cycle;Max_cycle;Signal;HPM_P1;HPM_P2
2023/12/31 00:01:03;;;;;;;3.53;2.33;;;17.40;62.00;;;;;;5115384;28;20177;-65
2023/12/31 00:03:28;;;;;;;4.15;2.38;;;17.40;61.90;;;;;;5115484;28;20227;-65
2023/12/31 00:05:54;;;;;;;3.22;1.75;;;17.40;61.80;;;;;;5115236;28;20639;-65
2023/12/31 00:08:19;;;;;;;3.67;1.67;;;17.40;61.80;;;;;;5114778;28;20165;-66
2023/12/31 00:10:45;;;;;;;1.90;1.70;;;17.40;61.80;;;;;;5115777;28;20177;-67
2023/12/31 00:13:10;;;;;;;3.15;1.80;;;17.40;61.90;;;;;;5115775;28;20535;-67
2023/12/31 00:15:36;;;;;;;2.28;1.70;;;17.30;61.70;;;;;;5114572;28;20741;-67
2023/12/31 00:18:01;;;;;;;2.53;1.63;;;17.30;61.80;;;;;;5115552;28;20177;-66
2023/12/31 00:20:27;;;;;;;2.72;2.13;;;17.30;61.90;;;;;;5115296;28;20660;-67
2023/12/31 00:22:52;;;;;;;2.17;1.73;;;17.30;61.80;;;;;;5114856;28;20196;-66
2023/12/31 00:25:18;;;;;;;2.72;1.60;;;17.30;61.80;;;;;;5115366;28;20165;-66
2023/12/31 00:27:43;;;;;;;2.33;1.58;;;17.30;61.70;;;;;;5114653;28;20220;-67
2023/12/31 00:30:11;;;;;;;2.88;2.03;;;17.30;61.80;;;;;;5113969;28;20616;-65
2023/12/31 00:32:37;;;;;;;2.13;1.85;;;17.30;61.70;;;;;;5114950;28;20173;-66
2023/12/31 00:35:03;;;;;;;3.25;1.73;;;17.30;61.90;;;;;;5115505;28;20203;-65
2023/12/31 00:37:29;;;;;;;2.47;1.80;;;17.30;61.80;;;;;;5114493;28;20181;-66
2023/12/31 00:39:54;;;;;;;2.35;1.60;;;17.30;61.70;;;;;;5115373;28;20166;-65
2023/12/31 00:42:20;;;;;;;1.52;1.42;;;17.30;61.70;;;;;;5114820;28;20643;-66
2023/12/31 00:44:45;;;;;;;5.50;1.85;;;17.30;61.60;;;;;;5114402;28;20209;-66
2023/12/31 00:47:11;;;;;;;3.15;1.92;;;17.30;61.60;;;;;;5114739;28;20184;-66
2023/12/31 00:49:37;;;;;;;2.05;1.63;;;17.30;61.70;;;;;;5114170;28;20197;-67
2023/12/31 00:52:02;;;;;;;2.55;1.40;;;17.20;61.70;;;;;;5114187;28;20181;-67
2023/12/31 00:54:28;;;;;;;1.40;1.30;;;17.20;61.60;;;;;;5114338;28;20231;-67
2023/12/31 00:56:53;;;;;;;2.58;1.52;;;17.20;61.70;;;;;;5114308;28;20261;-67
2023/12/31 00:59:19;;;;;;;2.38;1.60;;;17.20;61.50;;;;;;5114425;28;20193;-66
2023/12/31 01:01:44;;;;;;;5.30;1.50;;;17.20;62.40;;;;;;5098567;28;20217;-66
2023/12/31 01:04:10;;;;;;;2.38;1.73;;;17.20;61.60;;;;;;5093016;28;20304;-65
2023/12/31 01:06:35;;;;;;;2.75;1.50;;;17.20;61.50;;;;;;5093498;28;20227;-69
2023/12/31 01:09:01;;;;;;;2.15;1.27;;;17.20;61.60;;;;;;5094156;28;20668;-65
2023/12/31 01:11:27;;;;;;;1.45;1.35;;;17.20;61.50;;;;;;5093083;28;20176;-66
2023/12/31 01:13:53;;;;;;;1.85;1.40;;;17.10;61.40;;;;;;5094376;28;20178;-65
2023/12/31 01:16:18;;;;;;;1.75;1.65;;;17.10;61.40;;;;;;5093892;28;20195;-66
2023/12/31 01:18:44;;;;;;;1.60;1.50;;;17.10;61.40;;;;;;5093681;28;20174;-66
2023/12/31 01:21:09;;;;;;;2.13;1.58;;;17.10;61.40;;;;;;5094110;28;20170;-66
2023/12/31 01:23:35;;;;;;;2.13;1.52;;;17.10;61.40;;;;;;5093293;28;20205;-67
2023/12/31 01:26:01;;;;;;;2.15;1.70;;;17.10;61.40;;;;;;5093020;28;20178;-66
2023/12/31 01:28:27;;;;;;;1.75;1.25;;;17.10;61.30;;;;;;5093643;28;20640;-66
2023/12/31 01:30:52;;;;;;;2.17;1.67;;;17.10;61.40;;;;;;5093527;28;20174;-66
2023/12/31 01:33:18;;;;;;;3.15;1.50;;;17.10;62.20;;;;;;5092573;28;20184;-65
2023/12/31 01:35:43;;;;;;;1.90;1.30;;;17.10;61.30;;;;;;5093868;28;20231;-66
2023/12/31 01:38:09;;;;;;;1.58;1.48;;;17.10;61.30;;;;;;5093847;28;20174;-65
2023/12/31 01:40:34;;;;;;;1.98;1.73;;;17.00;61.20;;;;;;5092690;28;20162;-66
2023/12/31 01:43:00;;;;;;;1.73;1.50;;;17.00;61.20;;;;;;5092968;28;20243;-66
2023/12/31 01:45:25;;;;;;;1.70;1.30;;;17.00;61.30;;;;;;5092840;28;20586;-67
2023/12/31 01:47:52;;;;;;;2.38;1.45;;;17.00;61.30;;;;;;5092831;28;20636;-66
2023/12/31 01:50:18;;;;;;;1.83;1.30;;;17.10;61.30;;;;;;5075330;28;20192;-66
2023/12/31 01:52:43;;;;;;;1.88;1.48;;;17.10;61.30;;;;;;5058785;28;20200;-67
2023/12/31 01:55:09;;;;;;;1.75;1.50;;;17.00;61.30;;;;;;5111446;28;20302;-66
2023/12/31 01:57:35;;;;;;;1.27;1.15;;;17.00;61.20;;;;;;5095395;28;20173;-67
2023/12/31 02:00:03;;;;;;;1.42;1.20;;;17.00;61.30;;;;;;5113200;28;21075;-65
2023/12/31 02:02:29;;;;;;;1.88;1.30;;;17.00;61.30;;;;;;5095484;28;20595;-65
2023/12/31 02:04:55;;;;;;;2.08;1.20;;;17.00;61.30;;;;;;5095626;28;20209;-65
2023/12/31 02:07:21;;;;;;;2.33;1.50;;;17.00;61.40;;;;;;5094518;28;20172;-66
2023/12/31 02:09:46;;;;;;;2.33;1.30;;;17.00;61.30;;;;;;5112952;28;20716;-66
2023/12/31 02:12:12;;;;;;;1.70;1.25;;;17.00;61.20;;;;;;5112012;28;20177;-66
2023/12/31 02:14:37;;;;;;;1.58;1.00;;;17.00;61.30;;;;;;5111979;28;20177;-66
2023/12/31 02:17:03;;;;;;;1.67;1.30;;;17.00;61.20;;;;;;5113343;28;20691;-66
2023/12/31 02:19:28;;;;;;;1.40;1.13;;;16.90;61.20;;;;;;5112832;28;20196;-65
2023/12/31 02:21:58;;;;;;;1.92;1.08;;;16.90;61.20;;;;;;5112670;28;20343;-66
2023/12/31 02:24:28;;;;;;;1.95;1.30;;;16.90;61.20;;;;;;5093998;28;20229;-65
2023/12/31 02:26:54;;;;;;;2.15;1.17;;;16.90;61.30;;;;;;5094979;28;20259;-67
2023/12/31 02:29:19;;;;;;;1.20;1.10;;;16.90;61.30;;;;;;5112412;28;20268;-65
2023/12/31 02:31:45;;;;;;;2.42;1.17;;;17.00;61.30;;;;;;5113113;28;20595;-66
2023/12/31 02:34:11;;;;;;;3.60;1.48;;;16.90;61.30;;;;;;5113086;28;20915;-64
2023/12/31 02:36:36;;;;;;;1.30;1.20;;;16.90;61.20;;;;;;5111733;28;20173;-66
2023/12/31 02:39:02;;;;;;;1.73;1.20;;;16.90;61.30;;;;;;5112624;28;20180;-65
2023/12/31 02:41:28;;;;;;;1.58;1.23;;;16.90;61.20;;;;;;5112484;28;20534;-65
2023/12/31 02:43:53;;;;;;;2.05;1.17;;;16.90;61.20;;;;;;5112017;28;20206;-65
2023/12/31 02:46:19;;;;;;;1.92;1.30;;;16.90;61.30;;;;;;5112710;28;20173;-66
2023/12/31 02:48:45;;;;;;;2.42;1.40;;;16.90;61.30;;;;;;5112955;28;20177;-67
2023/12/31 02:51:10;;;;;;;2.15;1.30;;;16.90;61.30;;;;;;5112237;28;20169;-67
2023/12/31 02:53:36;;;;;;;1.52;1.30;;;16.80;61.20;;;;;;5112103;28;20224;-67
2023/12/31 02:56:01;;;;;;;1.38;1.10;;;16.90;61.30;;;;;;5111691;28;20949;-67
2023/12/31 02:58:27;;;;;;;2.05;1.40;;;16.80;61.20;;;;;;5111018;28;20550;-66
2023/12/31 03:00:52;;;;;;;1.45;1.10;;;16.80;61.20;;;;;;5112568;28;20234;-66
2023/12/31 03:03:18;;;;;;;1.23;1.10;;;16.80;61.20;;;;;;5112180;28;20209;-66
2023/12/31 03:05:43;;;;;;;1.50;1.40;;;16.80;61.30;;;;;;5112361;28;20165;-66
2023/12/31 03:08:09;;;;;;;1.73;1.20;;;16.80;61.20;;;;;;5112681;28;20176;-67
2023/12/31 03:10:34;;;;;;;1.50;1.20;;;16.80;61.30;;;;;;5111565;28;20172;-67
2023/12/31 03:13:00;;;;;;;1.20;0.98;;;16.80;61.30;;;;;;5112493;28;20165;-67
2023/12/31 03:15:25;;;;;;;2.05;0.90;;;16.80;61.20;;;;;;5112179;28;20177;-66
2023/12/31 03:17:51;;;;;;;1.92;1.35;;;16.80;61.30;;;;;;5111530;28;20173;-66
2023/12/31 03:20:17;;;;;;;1.33;1.10;;;16.80;61.20;;;;;;5112100;28;20181;-65
2023/12/31 03:22:45;;;;;;;1.10;1.00;;;16.80;61.30;;;;;;5112314;28;20184;-67
2023/12/31 03:25:11;;;;;;;1.60;1.50;;;16.80;61.30;;;;;;5115788;28;20663;-66
2023/12/31 03:27:36;;;;;;;1.90;1.60;;;16.80;61.20;;;;;;5105486;28;20184;-67
2023/12/31 03:30:02;;;;;;;1.10;1.10;;;16.70;61.10;;;;;;5116476;28;20207;-64
2023/12/31 03:32:28;;;;;;;1.23;1.13;;;16.70;61.10;;;;;;5115677;28;20203;-65
2023/12/31 03:34:53;;;;;;;2.33;1.20;;;16.80;61.20;;;;;;5116225;28;20210;-65
2023/12/31 03:37:19;;;;;;;1.15;1.05;;;16.70;61.20;;;;;;5115822;28;20212;-66
2023/12/31 03:39:44;;;;;;;2.72;1.35;;;16.70;61.20;;;;;;5115047;28;20169;-65
2023/12/31 03:42:10;;;;;;;1.80;1.38;;;16.80;61.20;;;;;;5116005;28;20185;-66
2023/12/31 03:44:35;;;;;;;2.08;1.30;;;16.70;61.20;;;;;;5114315;28;20209;-68
2023/12/31 03:47:01;;;;;;;1.40;1.20;;;16.70;61.20;;;;;;5114835;28;20187;-66
2023/12/31 03:49:26;;;;;;;2.97;1.20;;;16.70;61.10;;;;;;5116052;28;20580;-66
2023/12/31 03:51:52;;;;;;;1.17;1.08;;;16.70;61.20;;;;;;5116106;28;20506;-67
2023/12/31 03:54:17;;;;;;;1.55;1.20;;;16.70;61.10;;;;;;5114877;28;20220;-66
2023/12/31 03:56:43;;;;;;;1.35;1.10;;;16.70;61.20;;;;;;5116103;28;20169;-66
2023/12/31 03:59:08;;;;;;;1.13;1.00;;;16.70;61.20;;;;;;5116304;28;20213;-66
2023/12/31 04:01:42;;;;;;;1.27;1.10;;;16.70;61.20;;;;;;5114901;28;20179;-67
2023/12/31 04:04:08;;;;;;;1.80;1.48;;;16.70;61.20;;;;;;5115544;28;20212;-65
2023/12/31 04:06:33;;;;;;;1.35;1.00;;;16.70;61.20;;;;;;5115411;28;20647;-66
2023/12/31 04:08:59;;;;;;;1.33;1.08;;;16.60;61.10;;;;;;5114116;28;20176;-66
2023/12/31 04:11:24;;;;;;;1.15;1.00;;;16.60;61.10;;;;;;5115417;28;20188;-67
2023/12/31 04:13:50;;;;;;;1.48;1.30;;;16.60;61.10;;;;;;5115307;28;20177;-66
2023/12/31 04:16:15;;;;;;;1.58;1.10;;;16.70;61.20;;;;;;5115560;28;20169;-66
2023/12/31 04:18:41;;;;;;;1.40;1.30;;;16.70;61.20;;;;;;5115538;28;20193;-66
2023/12/31 04:21:06;;;;;;;1.25;1.13;;;16.60;61.10;;;;;;5114836;28;20176;-66
2023/12/31 04:23:32;;;;;;;1.17;1.08;;;16.60;61.20;;;;;;5115152;28;20220;-66
2023/12/31 04:25:57;;;;;;;1.42;1.30;;;16.60;61.20;;;;;;5109988;28;20629;-66
2023/12/31 04:28:23;;;;;;;1.27;1.13;;;16.60;61.10;;;;;;5114091;28;20168;-65
2023/12/31 04:30:48;;;;;;;1.20;1.10;;;16.60;61.10;;;;;;5115242;28;20168;-65
2023/12/31 04:33:14;;;;;;;0.80;0.80;;;16.60;61.10;;;;;;5114984;28;20169;-65
2023/12/31 04:35:40;;;;;;;2.10;1.05;;;16.60;61.10;;;;;;5113193;28;20165;-66
2023/12/31 04:38:05;;;;;;;1.00;0.90;;;16.60;61.20;;;;;;5113068;28;20165;-65
2023/12/31 04:40:31;;;;;;;1.65;1.25;;;16.60;61.10;;;;;;5114424;28;20184;-66
2023/12/31 04:42:56;;;;;;;1.45;1.27;;;16.60;61.10;;;;;;5113757;28;20197;-65
2023/12/31 04:45:22;;;;;;;2.75;1.00;;;16.60;61.10;;;;;;5114144;28;20173;-66
2023/12/31 04:47:48;;;;;;;1.23;1.05;;;16.50;61.00;;;;;;5115276;28;20177;-66
2023/12/31 04:50:13;;;;;;;1.38;1.27;;;16.60;61.10;;;;;;5114478;28;20270;-66
2023/12/31 04:52:39;;;;;;;1.20;1.10;;;16.50;61.10;;;;;;5114995;28;20173;-66
2023/12/31 04:55:05;;;;;;;1.45;1.02;;;16.50;61.10;;;;;;5114856;28;20225;-66
2023/12/31 04:57:30;;;;;;;1.10;1.00;;;16.50;61.00;;;;;;5113836;28;20543;-66
2023/12/31 04:59:56;;;;;;;1.00;0.90;;;16.50;61.00;;;;;;5115087;28;20181;-65
2023/12/31 05:02:22;;;;;;;2.10;1.25;;;16.50;61.10;;;;;;5113678;28;20177;-65
2023/12/31 05:04:47;;;;;;;1.10;1.02;;;16.50;61.10;;;;;;5113868;28;20613;-64
2023/12/31 05:07:14;;;;;;;1.05;1.00;;;16.50;61.00;;;;;;5114560;28;20689;-66
2023/12/31 05:09:39;;;;;;;0.85;0.85;;;16.50;61.10;;;;;;5114451;28;20650;-66
2023/12/31 05:12:05;;;;;;;1.00;0.90;;;16.50;61.10;;;;;;5113866;28;20185;-66
2023/12/31 05:14:31;;;;;;;1.00;0.90;;;16.50;61.20;;;;;;5114119;28;20658;-66
2023/12/31 05:16:56;;;;;;;1.10;1.00;;;16.50;61.10;;;;;;5113712;28;20181;-66
2023/12/31 05:19:22;;;;;;;1.85;0.95;;;16.50;61.10;;;;;;5113209;28;20177;-65
2023/12/31 05:21:47;;;;;;;1.20;1.10;;;16.50;61.10;;;;;;5114088;28;20184;-67
2023/12/31 05:24:13;;;;;;;1.25;1.15;;;16.40;61.10;;;;;;5113631;28;20216;-66
2023/12/31 05:26:38;;;;;;;0.93;0.90;;;16.50;61.10;;;;;;5114320;28;20177;-66
2023/12/31 05:29:04;;;;;;;1.13;1.02;;;16.50;61.20;;;;;;5114456;28;20180;-65
2023/12/31 05:31:29;;;;;;;1.20;1.10;;;16.40;61.00;;;;;;5113351;28;20169;-66
2023/12/31 05:33:55;;;;;;;1.48;1.10;;;16.40;61.00;;;;;;5114166;28;20196;-64
2023/12/31 05:36:20;;;;;;;1.63;1.08;;;16.50;61.10;;;;;;5113686;28;20542;-65
2023/12/31 05:38:46;;;;;;;0.80;0.80;;;16.40;61.10;;;;;;5113370;28;20199;-65
2023/12/31 05:41:12;;;;;;;1.20;1.10;;;16.40;61.10;;;;;;5114127;28;20169;-66
2023/12/31 05:43:37;;;;;;;1.15;1.00;;;16.40;61.10;;;;;;5113936;28;20293;-67
2023/12/31 05:46:03;;;;;;;1.38;1.23;;;16.40;61.10;;;;;;5113090;28;20198;-65
2023/12/31 05:48:28;;;;;;;1.35;1.05;;;16.40;61.10;;;;;;5113737;28;20185;-66
2023/12/31 05:50:54;;;;;;;1.10;0.95;;;16.40;61.10;;;;;;5114015;28;20582;-66
2023/12/31 05:53:19;;;;;;;1.38;1.13;;;16.40;61.10;;;;;;5112690;28;20600;-66
2023/12/31 05:55:46;;;;;;;1.88;1.15;;;16.40;61.10;;;;;;5112834;28;20719;-66
2023/12/31 05:58:11;;;;;;;1.10;1.00;;;16.40;61.10;;;;;;5113201;28;20670;-65
2023/12/31 06:00:37;;;;;;;3.60;1.25;;;16.40;61.20;;;;;;5112792;28;20177;-66
2023/12/31 06:03:03;;;;;;;1.20;1.10;;;16.40;61.10;;;;;;5112895;28;20192;-66
2023/12/31 06:05:28;;;;;;;1.25;1.17;;;16.40;62.10;;;;;;5113733;28;20169;-66
2023/12/31 06:07:54;;;;;;;1.27;1.00;;;16.40;61.30;;;;;;5112843;28;20642;-66
2023/12/31 06:10:19;;;;;;;1.42;1.27;;;16.40;61.20;;;;;;5113153;28;20699;-66
2023/12/31 06:12:45;;;;;;;1.33;1.20;;;16.40;61.20;;;;;;5113651;28;20251;-67
2023/12/31 06:15:11;;;;;;;1.80;1.30;;;16.40;61.20;;;;;;5112921;28;20181;-65
2023/12/31 06:17:36;;;;;;;0.93;0.90;;;16.40;61.20;;;;;;5113049;28;20229;-66
2023/12/31 06:20:04;;;;;;;2.63;1.30;;;16.40;61.30;;;;;;5113329;28;20185;-65
2023/12/31 06:22:29;;;;;;;1.40;1.30;;;16.40;61.20;;;;;;5111657;28;20548;-66
2023/12/31 06:24:55;;;;;;;2.08;1.30;;;16.30;61.20;;;;;;5112810;28;20212;-65
2023/12/31 06:27:20;;;;;;;1.17;1.08;;;16.30;61.20;;;;;;5112252;28;20211;-67
2023/12/31 06:29:46;;;;;;;1.25;1.13;;;16.30;61.30;;;;;;5113125;28;20255;-64
2023/12/31 06:32:11;;;;;;;2.00;1.27;;;16.30;61.30;;;;;;5112727;28;20610;-65
2023/12/31 06:34:37;;;;;;;1.33;1.23;;;16.30;61.30;;;;;;5112067;28;20798;-65
2023/12/31 06:37:03;;;;;;;1.80;1.25;;;16.30;61.40;;;;;;5112991;28;20198;-65
2023/12/31 06:39:29;;;;;;;1.17;1.17;;;16.30;61.40;;;;;;5112709;28;20198;-65
2023/12/31 06:41:55;;;;;;;1.30;1.20;;;16.30;61.50;;;;;;5112400;28;20238;-65
2023/12/31 06:44:21;;;;;;;1.48;1.00;;;16.30;61.30;;;;;;5112689;28;20209;-65
2023/12/31 06:46:46;;;;;;;1.33;1.20;;;16.30;61.30;;;;;;5113026;28;20691;-66
2023/12/31 06:49:12;;;;;;;2.30;1.17;;;16.30;61.30;;;;;;5112053;28;20715;-66
2023/12/31 06:51:37;;;;;;;2.25;1.35;;;16.30;61.40;;;;;;5112538;28;20172;-67
2023/12/31 06:54:03;;;;;;;1.42;1.30;;;16.30;61.40;;;;;;5112558;28;20225;-66
2023/12/31 06:56:29;;;;;;;1.08;1.08;;;16.30;61.50;;;;;;5111892;28;20222;-66
2023/12/31 06:58:54;;;;;;;1.33;1.25;;;16.30;61.60;;;;;;5112110;28;20819;-65
2023/12/31 07:01:20;;;;;;;1.45;1.35;;;16.30;61.50;;;;;;5112534;28;20264;-65
2023/12/31 07:03:45;;;;;;;0.95;0.95;;;16.20;61.40;;;;;;5111942;28;20311;-65
2023/12/31 07:06:11;;;;;;;1.10;1.00;;;16.30;61.60;;;;;;5112390;28;20212;-65
2023/12/31 07:08:36;;;;;;;1.33;1.20;;;16.20;62.20;;;;;;5112086;28;20265;-66
2023/12/31 07:11:02;;;;;;;1.38;1.10;;;16.30;61.60;;;;;;5111905;28;20176;-67
2023/12/31 07:13:28;;;;;;;1.23;1.10;;;16.30;61.60;;;;;;5112232;28;20184;-66
2023/12/31 07:15:58;;;;;;;1.20;1.10;;;16.20;61.50;;;;;;5112440;28;20173;-66
2023/12/31 07:18:23;;;;;;;1.10;1.00;;;16.30;61.60;;;;;;5111425;28;20184;-65
2023/12/31 07:20:49;;;;;;;1.17;1.08;;;16.20;61.40;;;;;;5112443;28;20628;-66
2023/12/31 07:23:15;;;;;;;1.00;1.00;;;16.30;61.60;;;;;;5112044;28;20197;-66
2023/12/31 07:25:40;;;;;;;1.15;1.08;;;16.20;61.50;;;;;;5111816;28;20687;-67
2023/12/31 07:28:06;;;;;;;2.45;1.45;;;16.20;61.50;;;;;;5112576;28;20181;-66
2023/12/31 07:30:31;;;;;;;1.40;1.20;;;16.20;61.50;;;;;;5112022;28;20295;-66
2023/12/31 07:32:57;;;;;;;1.08;0.98;;;16.20;61.60;;;;;;5111719;28;20188;-64
2023/12/31 07:35:22;;;;;;;1.95;1.20;;;16.20;61.50;;;;;;5112085;28;20643;-65
2023/12/31 07:37:48;;;;;;;1.52;1.17;;;16.20;61.60;;;;;;5111527;28;20162;-65
2023/12/31 07:40:13;;;;;;;1.60;1.13;;;16.20;61.60;;;;;;5112301;28;20221;-65
2023/12/31 07:42:39;;;;;;;1.27;0.98;;;16.20;61.60;;;;;;5112345;28;20173;-66
2023/12/31 07:45:05;;;;;;;1.30;1.20;;;16.20;61.60;;;;;;5111557;28;20220;-65
2023/12/31 07:47:35;;;;;;;1.73;1.17;;;16.20;61.60;;;;;;5111715;28;20222;-66
2023/12/31 07:50:04;;;;;;;2.03;1.02;;;16.20;61.60;;;;;;5111565;28;20173;-65
2023/12/31 07:52:30;;;;;;;1.08;1.02;;;16.20;61.60;;;;;;5110874;28;20654;-67
2023/12/31 07:54:55;;;;;;;1.38;1.10;;;16.20;61.60;;;;;;5111940;28;20307;-66
2023/12/31 07:57:21;;;;;;;1.60;1.38;;;16.20;61.60;;;;;;5111916;28;20205;-66
2023/12/31 07:59:46;;;;;;;1.10;1.10;;;16.20;61.60;;;;;;5111474;28;20201;-65
2023/12/31 08:02:12;;;;;;;1.50;1.00;;;16.20;61.60;;;;;;5111828;28;20240;-65
2023/12/31 08:04:38;;;;;;;1.63;1.27;;;16.20;61.60;;;;;;5111616;28;20656;-66
2023/12/31 08:07:03;;;;;;;1.60;1.50;;;16.20;61.60;;;;;;5111129;28;20177;-65
2023/12/31 08:09:29;;;;;;;1.23;1.00;;;16.20;61.60;;;;;;5112905;28;20180;-66
2023/12/31 08:11:55;;;;;;;1.17;1.00;;;16.10;61.70;;;;;;5115795;28;20201;-67
2023/12/31 08:14:21;;;;;;;1.42;1.33;;;16.20;61.70;;;;;;5114676;28;20216;-65
2023/12/31 08:16:46;;;;;;;1.10;1.00;;;16.20;61.70;;;;;;5115620;28;20184;-66
2023/12/31 08:19:12;;;;;;;1.40;1.30;;;16.20;61.70;;;;;;5115380;28;20193;-65
2023/12/31 08:21:37;;;;;;;1.45;1.30;;;16.20;62.50;;;;;;5114399;28;20165;-67
2023/12/31 08:24:03;;;;;;;1.65;1.00;;;16.20;61.50;;;;;;5115395;28;20213;-66
2023/12/31 08:26:29;;;;;;;1.27;1.17;;;16.20;61.50;;;;;;5115221;28;20225;-67
2023/12/31 08:28:54;;;;;;;1.20;1.10;;;16.20;61.50;;;;;;5114851;28;20644;-66
2023/12/31 08:31:20;;;;;;;1.20;1.10;;;16.20;61.40;;;;;;5115102;28;20165;-65
2023/12/31 08:33:45;;;;;;;1.20;1.10;;;16.20;61.30;;;;;;5115381;28;20180;-65
2023/12/31 08:36:11;;;;;;;1.50;1.33;;;16.20;61.30;;;;;;5114804;28;20169;-65
2023/12/31 08:38:36;;;;;;;1.15;1.05;;;16.20;61.30;;;;;;5115232;28;20595;-65
2023/12/31 08:41:02;;;;;;;1.00;0.93;;;16.20;61.40;;;;;;5114931;28;20511;-66
2023/12/31 08:43:28;;;;;;;1.30;1.20;;;16.20;61.40;;;;;;5114813;28;20694;-66
2023/12/31 08:45:53;;;;;;;1.33;1.23;;;16.20;61.40;;;;;;5115097;28;20200;-64
2023/12/31 08:48:19;;;;;;;1.40;1.30;;;16.20;61.40;;;;;;5114042;28;20247;-64
2023/12/31 08:50:45;;;;;;;1.73;1.10;;;16.20;61.40;;;;;;5114972;28;20609;-65
2023/12/31 08:53:10;;;;;;;1.50;1.40;;;16.20;61.40;;;;;;5114951;28;20188;-64
2023/12/31 08:55:36;;;;;;;2.35;1.30;;;16.30;61.40;;;;;;5113523;28;20591;-65
2023/12/31 08:58:01;;;;;;;1.70;1.13;;;16.20;61.40;;;;;;5115043;28;20181;-65
2023/12/31 09:00:27;;;;;;;1.42;1.33;;;16.20;61.40;;;;;;5114517;28;20170;-64
2023/12/31 09:02:52;;;;;;;1.45;1.35;;;16.20;61.30;;;;;;5113924;28;20169;-64
2023/12/31 09:05:18;;;;;;;1.45;1.35;;;16.20;61.40;;;;;;5112897;28;20185;-64
2023/12/31 09:07:43;;;;;;;1.40;1.30;;;16.20;61.40;;;;;;5114370;28;20213;-66
2023/12/31 09:10:09;;;;;;;1.85;1.30;;;16.20;61.40;;;;;;5113355;28;20189;-64
2023/12/31 09:12:35;;;;;;;1.92;1.30;;;16.20;61.40;;;;;;5114472;28;20169;-65
2023/12/31 09:15:00;;;;;;;1.42;1.33;;;16.20;61.40;;;;;;5114410;28;20183;-64
2023/12/31 09:17:26;;;;;;;2.78;1.30;;;16.20;61.40;;;;;;5113452;28;20203;-64
2023/12/31 09:19:53;;;;;;;1.88;1.45;;;16.20;61.40;;;;;;5114293;28;20217;-63
2023/12/31 09:22:19;;;;;;;1.48;1.38;;;16.20;61.50;;;;;;5113652;28;20252;-64
2023/12/31 09:24:45;;;;;;;1.67;1.40;;;16.20;61.40;;;;;;5113763;28;20743;-65
2023/12/31 09:27:11;;;;;;;1.50;1.40;;;16.20;61.40;;;;;;5114149;28;20173;-65
2023/12/31 09:29:36;;;;;;;1.50;1.40;;;16.30;61.50;;;;;;5113368;28;20173;-64
2023/12/31 09:32:03;;;;;;;1.83;1.20;;;16.20;61.30;;;;;;5113511;28;20664;-62
2023/12/31 09:34:28;;;;;;;2.85;1.50;;;16.20;61.40;;;;;;5113777;28;20231;-63
2023/12/31 09:36:54;;;;;;;1.25;1.13;;;16.20;62.20;;;;;;5114192;28;20169;-65
2023/12/31 09:39:19;;;;;;;1.63;1.52;;;16.20;61.40;;;;;;5112919;28;20173;-63
2023/12/31 09:41:49;;;;;;;3.72;1.42;;;16.20;61.50;;;;;;5114198;28;20546;-66
2023/12/31 09:44:17;;;;;;;3.10;1.60;;;16.20;61.70;;;;;;5112654;28;20671;-66
2023/12/31 09:46:43;;;;;;;1.85;1.40;;;16.20;61.80;;;;;;5095937;28;20192;-67
2023/12/31 09:49:08;;;;;;;1.60;1.50;;;16.30;62.00;;;;;;5095899;28;20636;-68
2023/12/31 09:51:34;;;;;;;5.05;1.88;;;16.20;61.70;;;;;;5077810;28;20280;-68
2023/12/31 09:53:59;;;;;;;3.80;1.55;;;16.30;62.30;;;;;;5095364;28;20304;-67
2023/12/31 09:56:25;;;;;;;12.75;5.75;;;16.30;62.00;;;;;;5078425;28;20209;-66
2023/12/31 09:58:51;;;;;;;9.80;4.50;;;16.30;63.20;;;;;;5094344;28;20210;-64
2023/12/31 10:01:17;;;;;;;27.55;15.93;;;16.30;62.50;;;;;;5113224;28;20550;-67
2023/12/31 10:03:44;;;;;;;22.40;13.65;;;16.30;62.30;;;;;;5113362;28;20702;-66
2023/12/31 10:06:09;;;;;;;19.23;11.75;;;16.30;62.00;;;;;;5094713;28;20546;-66
2023/12/31 10:08:35;;;;;;;22.92;12.40;;;16.30;62.40;;;;;;5078205;28;20180;-66
2023/12/31 10:11:00;;;;;;;17.00;11.57;;;16.30;62.60;;;;;;5078301;28;20172;-67
2023/12/31 10:13:28;;;;;;;18.48;11.32;;;16.70;63.10;;;;;;5094473;28;20169;-66
2023/12/31 10:15:53;;;;;;;16.80;10.52;;;16.50;62.80;;;;;;5113315;28;20651;-66
2023/12/31 10:18:19;;;;;;;17.00;10.07;;;16.40;62.90;;;;;;5113350;28;20177;-65
2023/12/31 10:20:44;;;;;;;15.25;8.75;;;16.50;63.20;;;;;;5112548;28;20647;-65
2023/12/31 10:23:10;;;;;;;11.68;7.97;;;16.60;63.10;;;;;;5113192;28;20211;-66
2023/12/31 10:25:35;;;;;;;12.73;8.35;;;16.50;62.90;;;;;;5112864;28;20339;-67
2023/12/31 10:28:01;;;;;;;13.27;7.72;;;16.60;63.10;;;;;;5112172;28;20259;-66
2023/12/31 10:30:27;;;;;;;13.13;7.90;;;16.60;63.00;;;;;;5077440;28;20275;-65
2023/12/31 10:32:52;;;;;;;12.25;7.53;;;16.60;63.10;;;;;;5111595;28;20175;-67
2023/12/31 10:35:20;;;;;;;12.15;7.45;;;16.50;63.10;;;;;;5112298;28;20530;-66
2023/12/31 10:37:45;;;;;;;11.90;6.90;;;16.60;63.20;;;;;;5113113;28;20173;-66
2023/12/31 10:40:20;;;;;;;9.13;6.18;;;16.60;63.10;;;;;;5112659;28;20238;-66
2023/12/31 10:42:51;;;;;;;9.88;6.30;;;16.60;63.20;;;;;;5111814;28;20252;-67
2023/12/31 10:45:18;;;;;;;9.30;5.95;;;16.60;63.10;;;;;;5112368;28;20216;-66
2023/12/31 10:47:45;;;;;;;9.95;4.90;;;16.60;62.90;;;;;;5111538;28;20565;-69
2023/12/31 10:50:12;;;;;;;8.23;5.15;;;16.50;62.80;;;;;;5112668;28;20708;-65
2023/12/31 10:52:38;;;;;;;9.52;5.43;;;16.50;62.80;;;;;;5077547;28;20643;-66
2023/12/31 10:55:05;;;;;;;10.88;5.25;;;16.50;62.90;;;;;;5061064;28;20225;-63
2023/12/31 10:57:30;;;;;;;8.57;4.90;;;16.50;62.70;;;;;;5055391;28;20185;-66
2023/12/31 10:59:56;;;;;;;10.05;5.78;;;16.40;62.60;;;;;;5074165;28;20169;-65
2023/12/31 11:02:22;;;;;;;8.55;4.95;;;16.40;62.60;;;;;;5067354;28;20166;-66
2023/12/31 11:04:48;;;;;;;6.28;4.15;;;16.40;62.40;;;;;;5086931;28;20567;-66
2023/12/31 11:07:14;;;;;;;7.35;4.72;;;16.40;62.20;;;;;;5089346;28;20170;-66
2023/12/31 11:09:41;;;;;;;9.25;5.65;;;16.40;62.10;;;;;;5091346;28;20185;-66
2023/12/31 11:12:07;;;;;;;8.30;5.90;;;16.40;62.20;;;;;;5074203;28;20254;-66
2023/12/31 11:14:33;;;;;;;8.60;4.13;;;16.40;62.20;;;;;;5091705;28;20766;-66
2023/12/31 11:17:22;;;;;;;9.70;5.45;;;16.40;62.10;;;;;;5056673;28;20254;-66
2023/12/31 11:20:07;;;;;;;6.53;4.32;;;16.40;62.10;;;;;;5075311;28;20177;-65
2023/12/31 11:23:13;;;;;;;8.13;4.45;;;16.30;62.10;;;;;;5091457;28;20197;-67
2023/12/31 11:25:38;;;;;;;6.53;4.25;;;16.40;62.10;;;;;;5041050;28;20196;-67
2023/12/31 11:28:06;;;;;;;5.03;3.58;;;16.40;62.40;;;;;;5072030;28;20169;-66
2023/12/31 11:30:55;;;;;;;8.02;3.80;;;16.50;62.10;;;;;;5089650;28;20174;-66
2023/12/31 11:33:25;;;;;;;5.55;3.60;;;16.60;62.20;;;;;;5091344;28;20647;-65
2023/12/31 11:35:51;;;;;;;4.35;3.08;;;16.50;62.40;;;;;;5084442;28;20640;-65
2023/12/31 11:38:18;;;;;;;7.07;3.72;;;16.50;62.20;;;;;;5082157;28;20174;-66
2023/12/31 11:40:44;;;;;;;4.60;3.67;;;16.60;62.00;;;;;;5074911;28;20179;-66
2023/12/31 11:43:14;;;;;;;6.10;3.28;;;16.50;61.90;;;;;;5073210;28;20202;-70
2023/12/31 11:45:43;;;;;;;6.95;3.53;;;16.50;61.90;;;;;;5087851;28;20223;-68
2023/12/31 11:48:25;;;;;;;6.38;3.20;;;16.50;62.10;;;;;;5081360;28;20182;-66
2023/12/31 11:50:58;;;;;;;8.55;4.78;;;16.50;61.70;;;;;;5092631;28;20176;-66
2023/12/31 11:53:25;;;;;;;17.17;8.45;;;16.50;61.80;;;;;;5095542;28;20173;-67
2023/12/31 11:55:58;;;;;;;12.15;7.85;;;16.50;61.50;;;;;;5084846;28;20186;-67
2023/12/31 11:58:27;;;;;;;10.15;6.03;;;16.50;61.40;;;;;;5084908;28;20184;-74
2023/12/31 12:00:53;;;;;;;9.15;6.13;;;16.50;62.10;;;;;;5095721;28;20189;-68
2023/12/31 12:03:19;;;;;;;8.52;5.93;;;16.50;62.00;;;;;;5095260;28;20292;-67
2023/12/31 12:05:50;;;;;;;10.35;6.35;;;16.50;61.80;;;;;;5094903;28;20276;-67
2023/12/31 12:08:16;;;;;;;13.80;5.65;;;16.60;61.80;;;;;;5087415;28;20211;-68
2023/12/31 12:10:44;;;;;;;9.43;5.45;;;16.60;61.90;;;;;;5075903;28;20182;-69
2023/12/31 12:13:10;;;;;;;10.00;4.95;;;16.70;62.00;;;;;;5056804;28;20174;-69
2023/12/31 12:15:36;;;;;;;17.05;5.35;;;16.70;62.00;;;;;;5074932;28;20224;-68
2023/12/31 12:18:18;;;;;;;10.77;4.90;;;16.60;61.60;;;;;;5074835;28;20257;-68
2023/12/31 12:20:44;;;;;;;13.95;4.63;;;16.60;61.90;;;;;;5058874;28;20186;-67
2023/12/31 12:23:10;;;;;;;7.78;4.13;;;16.50;61.60;;;;;;5074861;28;20258;-67
2023/12/31 12:25:36;;;;;;;10.88;4.65;;;16.50;61.40;;;;;;5056998;28;20624;-67
2023/12/31 12:28:05;;;;;;;10.25;4.55;;;16.50;61.70;;;;;;5056587;28;20178;-67
2023/12/31 12:30:30;;;;;;;10.82;5.00;;;16.50;61.80;;;;;;5074682;28;20202;-67
2023/12/31 12:32:58;;;;;;;6.63;4.25;;;16.50;61.80;;;;;;5074735;28;20565;-67
2023/12/31 12:35:27;;;;;;;7.65;4.20;;;16.50;61.80;;;;;;5073688;28;20182;-67
2023/12/31 12:37:53;;;;;;;9.20;4.95;;;16.50;61.70;;;;;;5074707;28;20648;-68
2023/12/31 12:40:19;;;;;;;6.35;4.15;;;16.50;61.70;;;;;;5073818;28;20182;-67